createdAt,value
2018-08-03T00:00:34.178Z,11.13
2018-08-03T00:03:03.557Z,11.57
2018-08-03T00:05:32.788Z,12.03
2018-08-03T00:08:01.960Z,11.07
2018-08-03T00:10:31.147Z,12.03
2018-08-03T00:13:00.297Z,11.60
2018-08-03T00:15:29.487Z,10.87
2018-08-03T00:17:58.661Z,11.50
2018-08-03T00:38:30.960Z,11.90
2018-08-03T00:41:00.258Z,11.70
2018-08-03T00:43:29.426Z,11.60
2018-08-03T00:45:58.583Z,11.20
2018-08-03T00:48:27.961Z,12.37
2018-08-03T00:50:57.100Z,13.20
2018-08-03T00:53:26.269Z,13.07
2018-08-03T00:55:55.460Z,13.43
2018-08-03T00:58:24.633Z,13.97
2018-08-03T01:00:53.823Z,14.10
2018-08-03T01:21:26.464Z,12.03
2018-08-03T01:23:55.653Z,12.63
2018-08-03T01:26:24.828Z,13.03
2018-08-03T01:28:54.181Z,12.43
2018-08-03T01:31:23.355Z,12.47
2018-08-03T01:33:52.508Z,12.27
2018-08-03T01:36:21.708Z,11.90
2018-08-03T01:38:50.851Z,11.77
2018-08-03T01:59:24.490Z,12.87
2018-08-03T02:01:53.659Z,12.43
2018-08-03T02:04:22.812Z,12.33
2018-08-03T02:06:52.001Z,12.60
2018-08-03T02:09:21.173Z,12.97
2018-08-03T02:11:50.050Z,12.00
2018-08-03T02:14:19.112Z,13.23
2018-08-03T02:16:48.337Z,13.50
2018-08-03T02:19:17.505Z,13.17
2018-08-03T02:21:46.687Z,12.80
2018-08-03T02:24:15.901Z,13.03
2018-08-03T02:26:45.089Z,13.03
2018-08-03T02:47:18.786Z,13.37
2018-08-03T02:49:48.682Z,13.30
2018-08-03T02:52:18.289Z,14.27
2018-08-03T03:12:52.169Z,13.67
2018-08-03T03:15:21.466Z,13.90
2018-08-03T03:17:50.901Z,13.97
2018-08-03T03:20:20.753Z,14.40
2018-08-03T03:40:54.479Z,14.63
2018-08-03T04:01:29.447Z,17.30
2018-08-03T04:22:03.381Z,19.63
2018-08-03T04:24:32.898Z,18.67
2018-08-03T04:45:06.050Z,17.73
2018-08-03T04:47:35.618Z,17.10
2018-08-03T04:50:05.147Z,18.33
2018-08-03T04:52:34.322Z,18.97
2018-08-03T04:55:03.681Z,18.60
2018-08-03T04:57:33.041Z,19.33
2018-08-03T05:00:03.085Z,19.50
2018-08-03T05:02:32.321Z,20.60
2018-08-03T05:05:02.367Z,19.07
2018-08-03T05:07:32.448Z,20.17
2018-08-03T05:10:02.116Z,19.23
2018-08-03T05:12:31.361Z,19.87
2018-08-03T05:15:00.636Z,20.23
2018-08-03T05:17:29.880Z,19.77
2018-08-03T05:19:59.420Z,20.23
2018-08-03T05:22:29.494Z,19.73
2018-08-03T05:24:59.661Z,18.50
2018-08-03T05:27:28.983Z,20.47
2018-08-03T05:29:58.827Z,20.57
2018-08-03T05:32:28.335Z,21.63
2018-08-03T05:34:57.997Z,20.27
2018-08-03T05:37:28.139Z,19.97
2018-08-03T05:39:57.414Z,19.73
2018-08-03T06:00:31.206Z,19.30
2018-08-03T06:03:00.957Z,19.13
2018-08-03T06:05:30.313Z,18.50
2018-08-03T06:07:59.758Z,19.20
2018-08-03T06:10:29.144Z,17.87
2018-08-03T06:31:01.970Z,15.03
2018-08-03T06:33:31.239Z,14.93
2018-08-03T06:36:00.612Z,16.05
2018-08-03T06:38:30.583Z,16.20
2018-08-03T06:41:00.878Z,15.90
2018-08-03T07:01:34.899Z,15.07
2018-08-03T07:04:04.480Z,15.93
2018-08-03T07:24:38.658Z,15.50
2018-08-03T07:27:08.083Z,15.87
2018-08-03T07:47:41.743Z,14.23
2018-08-03T08:08:15.859Z,14.93
2018-08-03T08:10:45.655Z,15.23
2018-08-03T08:31:20.246Z,14.13
2018-08-03T08:33:50.374Z,14.30
2018-08-03T08:54:23.997Z,14.00
2018-08-03T09:14:57.613Z,14.27
2018-08-03T09:17:26.842Z,13.63
2018-08-03T09:19:56.803Z,13.60
2018-08-03T09:22:26.224Z,13.43
2018-08-03T09:43:00.323Z,13.47
2018-08-03T09:45:29.750Z,12.77
2018-08-03T09:47:58.904Z,13.57
2018-08-03T09:50:27.923Z,13.70
2018-08-03T09:52:57.081Z,14.00
2018-08-03T09:55:26.360Z,14.63
2018-08-03T09:57:55.660Z,13.90
2018-08-03T10:00:30.209Z,14.17
2018-08-03T10:02:59.466Z,13.23
2018-08-03T10:05:29.302Z,13.70
2018-08-03T10:26:03.223Z,14.53
2018-08-03T10:28:32.484Z,14.43
2018-08-03T10:31:05.463Z,14.40
2018-08-03T10:33:35.074Z,14.03
2018-08-03T10:54:09.173Z,14.30
2018-08-03T11:14:43.145Z,13.40
2018-08-03T11:17:12.403Z,13.47
2018-08-03T11:19:41.558Z,11.87
2018-08-03T11:22:12.334Z,13.40
2018-08-03T11:24:42.209Z,13.17
2018-08-03T11:27:12.176Z,12.20
2018-08-03T11:29:42.023Z,12.87
2018-08-03T11:32:11.425Z,12.93
2018-08-03T11:34:40.785Z,12.27
2018-08-03T11:37:10.195Z,12.27
2018-08-03T11:39:39.453Z,12.70
2018-08-03T11:42:08.730Z,12.43
2018-08-03T11:44:38.561Z,12.10
2018-08-03T11:47:07.878Z,12.07
2018-08-03T11:49:37.410Z,12.00
2018-08-03T11:52:07.578Z,11.87
2018-08-03T11:54:37.010Z,12.37
2018-08-03T12:15:10.719Z,11.73
2018-08-03T12:17:40.008Z,11.90
2018-08-03T12:20:09.260Z,12.17
2018-08-03T12:22:38.509Z,11.80
2018-08-03T12:25:07.827Z,11.87
2018-08-03T12:27:37.629Z,11.67
2018-08-03T12:30:07.442Z,11.20
2018-08-03T12:32:36.977Z,11.60
2018-08-03T12:35:06.406Z,10.83
2018-08-03T12:37:35.673Z,11.47
2018-08-03T12:40:05.430Z,11.77
2018-08-03T12:42:34.753Z,11.37
2018-08-03T12:45:04.141Z,12.20
2018-08-03T13:05:37.314Z,11.63
2018-08-03T13:08:07.690Z,11.40
2018-08-03T13:10:38.146Z,10.67
2018-08-03T13:13:07.509Z,10.60
2018-08-03T13:15:36.979Z,10.97
2018-08-03T13:36:09.729Z,10.67
2018-08-03T13:38:39.017Z,10.53
2018-08-03T13:41:08.481Z,10.43
2018-08-03T13:43:38.482Z,9.73
2018-08-03T14:04:19.604Z,9.20
2018-08-03T14:06:48.982Z,9.03
2018-08-03T14:09:19.875Z,9.25
2018-08-03T14:11:49.126Z,10.10
2018-08-03T14:32:15.717Z,8.75
2018-08-03T14:34:44.955Z,9.13
2018-08-03T14:37:14.848Z,8.85
2018-08-03T14:39:46.708Z,8.83
2018-08-03T14:42:16.803Z,8.00
2018-08-03T14:44:46.110Z,8.75
2018-08-03T14:47:16.377Z,9.25
2018-08-03T14:49:45.717Z,8.68
2018-08-03T14:52:14.778Z,8.23
2018-08-03T14:54:45.124Z,8.68
2018-08-03T14:57:14.073Z,8.95
2018-08-03T14:59:43.919Z,8.70
2018-08-03T15:02:13.214Z,9.45
2018-08-03T15:04:42.622Z,9.20
2018-08-03T15:07:11.958Z,9.03
2018-08-03T15:09:41.200Z,9.48
2018-08-03T15:12:10.978Z,9.73
2018-08-03T15:14:40.693Z,9.50
2018-08-03T15:17:09.874Z,9.30
2018-08-03T15:19:39.128Z,9.53
2018-08-03T15:22:08.406Z,8.93
2018-08-03T15:24:37.669Z,9.18
2018-08-03T15:45:10.345Z,9.85
2018-08-03T16:05:45.576Z,9.85
2018-08-03T16:08:14.844Z,10.68
2018-08-03T16:10:45.625Z,10.13
2018-08-03T16:13:15.514Z,9.73
2018-08-03T16:15:44.808Z,9.20
2018-08-03T16:18:14.071Z,10.35
2018-08-03T16:20:43.701Z,10.00
2018-08-03T16:23:13.002Z,10.45
2018-08-03T16:25:42.324Z,10.65
2018-08-03T16:28:11.842Z,10.78
2018-08-03T16:30:41.079Z,10.68
2018-08-03T16:33:10.372Z,10.55
2018-08-03T16:35:41.330Z,10.87
2018-08-03T16:38:10.509Z,11.23
2018-08-03T16:40:41.284Z,11.67
2018-08-03T16:43:11.129Z,10.77
2018-08-03T17:03:36.826Z,11.03
2018-08-03T17:24:10.265Z,11.60
2018-08-03T17:26:40.973Z,10.77
2018-08-03T17:47:14.477Z,11.43
2018-08-03T17:49:43.850Z,11.60
2018-08-03T17:52:13.101Z,11.50
2018-08-03T18:12:46.681Z,12.47
2018-08-03T18:15:16.422Z,11.07
2018-08-03T18:17:45.824Z,11.00
2018-08-03T18:20:16.294Z,12.00
2018-08-03T18:22:45.712Z,11.87
2018-08-03T18:25:14.974Z,11.40
2018-08-03T18:45:48.310Z,13.67
2018-08-03T18:48:17.622Z,13.17
2018-08-03T18:50:47.694Z,13.00
2018-08-03T18:53:16.967Z,12.87
2018-08-03T18:55:47.214Z,13.37
2018-08-03T18:58:17.053Z,12.80
2018-08-03T19:00:47.032Z,13.30
2018-08-03T19:21:20.535Z,14.00
2018-08-03T19:23:49.771Z,13.00
2018-08-03T19:26:19.063Z,14.10
2018-08-03T19:46:51.837Z,13.30
2018-08-03T19:49:21.783Z,13.03
2018-08-03T19:51:51.085Z,14.53
2018-08-03T19:54:20.422Z,13.33
2018-08-03T19:56:50.542Z,13.23
2018-08-03T19:59:19.844Z,13.83
2018-08-03T20:19:52.743Z,12.97
2018-08-03T20:22:22.164Z,13.07
2018-08-03T20:24:52.178Z,12.90
2018-08-03T20:27:21.480Z,13.13
2018-08-03T20:29:50.835Z,12.67
2018-08-03T20:32:21.143Z,13.30
2018-08-03T20:34:51.158Z,12.80
2018-08-03T20:37:20.446Z,13.23
2018-08-03T20:39:49.743Z,12.90
2018-08-03T20:42:19.189Z,13.33
2018-08-03T21:02:53.590Z,13.33
2018-08-03T21:05:22.906Z,13.37
2018-08-03T21:07:52.182Z,13.17
2018-08-03T21:10:21.874Z,13.10
2018-08-03T21:12:51.836Z,13.10
2018-08-03T21:15:21.268Z,12.83
2018-08-03T21:17:50.553Z,13.57
2018-08-03T21:20:19.858Z,13.50
2018-08-03T21:22:49.170Z,12.70
2018-08-03T21:25:18.344Z,12.93
2018-08-03T21:27:47.671Z,13.30
2018-08-03T21:30:16.992Z,14.37
2018-08-03T21:32:47.539Z,13.83
2018-08-03T21:35:16.764Z,12.63
2018-08-03T21:37:46.054Z,13.63
2018-08-03T21:40:15.409Z,12.90
2018-08-03T22:00:49.530Z,14.43
2018-08-03T22:03:18.889Z,14.50
2018-08-03T22:05:48.201Z,14.90
2018-08-03T22:08:18.316Z,13.90
2018-08-03T22:10:48.154Z,14.43
2018-08-03T22:13:17.547Z,15.00
2018-08-03T22:15:47.361Z,15.00
2018-08-03T22:18:16.609Z,15.00
2018-08-03T22:20:45.897Z,14.73
2018-08-03T22:23:15.181Z,14.60
2018-08-03T22:25:44.411Z,15.47
2018-08-03T22:28:13.669Z,15.40
2018-08-03T22:30:43.074Z,15.93
2018-08-03T22:33:12.355Z,15.73
2018-08-03T22:35:41.749Z,15.47
2018-08-03T22:38:11.722Z,15.40
2018-08-03T22:40:40.965Z,15.90
2018-08-03T22:43:10.230Z,16.33
2018-08-03T22:45:39.710Z,15.87
2018-08-03T22:48:08.936Z,15.57
2018-08-03T23:08:35.802Z,18.20
2018-08-03T23:11:05.228Z,18.13
2018-08-03T23:13:34.566Z,17.47
2018-08-03T23:16:04.789Z,17.77
2018-08-03T23:18:34.093Z,17.60
2018-08-03T23:21:03.338Z,18.03
2018-08-03T23:23:32.577Z,17.90
2018-08-03T23:26:01.832Z,17.53
2018-08-03T23:28:32.083Z,17.97
2018-08-03T23:31:01.943Z,17.77
2018-08-03T23:33:31.404Z,17.47
2018-08-03T23:36:00.642Z,17.90
2018-08-03T23:38:30.180Z,18.00
2018-08-03T23:40:59.557Z,17.80
